createdAt,value
2018-06-13T00:02:30.843Z,58.70
2018-06-13T00:05:03.254Z,58.40
2018-06-13T00:07:31.758Z,59.30
2018-06-13T00:10:03.168Z,59.30
2018-06-13T00:12:31.661Z,59.00
2018-06-13T00:15:00.147Z,59.40
2018-06-13T00:17:33.369Z,59.10
2018-06-13T00:20:01.889Z,59.00
2018-06-13T00:22:31.369Z,58.70
2018-06-13T00:25:01.559Z,59.10
2018-06-13T00:27:31.052Z,59.40
2018-06-13T00:30:01.115Z,59.10
2018-06-13T00:32:31.674Z,59.20
2018-06-13T00:35:00.316Z,59.40
2018-06-13T00:37:30.304Z,59.20
2018-06-13T00:40:04.664Z,59.60
2018-06-13T00:42:33.113Z,59.80
2018-06-13T00:45:01.656Z,59.80
2018-06-13T00:47:30.104Z,59.30
2018-06-13T00:49:58.629Z,58.90
2018-06-13T00:52:27.150Z,59.80
2018-06-13T00:54:55.770Z,59.80
2018-06-13T00:57:24.283Z,60.10
2018-06-13T00:59:52.836Z,58.90
2018-06-13T01:02:21.371Z,58.40
2018-06-13T01:04:49.851Z,58.50
2018-06-13T01:07:18.472Z,59.10
2018-06-13T01:09:47.019Z,59.60
2018-06-13T01:12:15.515Z,59.50
2018-06-13T01:14:43.952Z,59.00
2018-06-13T01:17:12.453Z,59.40
2018-06-13T01:19:40.933Z,59.90
2018-06-13T01:22:09.554Z,60.00
2018-06-13T01:24:38.011Z,60.00
2018-06-13T01:27:06.571Z,60.10
2018-06-13T01:29:35.179Z,60.20
2018-06-13T01:32:03.675Z,60.20
2018-06-13T01:34:32.172Z,60.30
2018-06-13T01:37:00.745Z,60.30
2018-06-13T01:39:29.199Z,59.80
2018-06-13T01:41:57.728Z,60.10
2018-06-13T01:44:26.241Z,60.00
2018-06-13T01:46:54.768Z,60.20
2018-06-13T01:49:23.246Z,60.10
2018-06-13T01:51:51.697Z,59.70
2018-06-13T01:54:20.166Z,60.10
2018-06-13T01:56:48.629Z,60.30
2018-06-13T01:59:17.238Z,60.20
2018-06-13T02:01:45.701Z,60.30
2018-06-13T02:04:14.206Z,60.50
2018-06-13T02:06:42.726Z,60.50
2018-06-13T02:09:11.310Z,60.60
2018-06-13T02:11:39.758Z,60.60
2018-06-13T02:14:08.274Z,60.00
2018-06-13T02:16:36.753Z,60.40
2018-06-13T02:19:05.282Z,60.80
2018-06-13T02:21:33.731Z,59.80
2018-06-13T02:24:02.163Z,59.90
2018-06-13T02:26:30.674Z,60.00
2018-06-13T02:28:59.141Z,60.50
2018-06-13T02:31:27.630Z,60.30
2018-06-13T02:33:56.078Z,60.40
2018-06-13T02:36:24.571Z,60.40
2018-06-13T02:38:53.042Z,60.70
2018-06-13T02:41:21.548Z,60.60
2018-06-13T02:43:50.019Z,61.00
2018-06-13T02:46:18.515Z,61.20
2018-06-13T02:48:47.215Z,61.30
2018-06-13T02:51:15.762Z,61.10
2018-06-13T02:53:44.246Z,61.00
2018-06-13T02:56:12.714Z,61.40
2018-06-13T02:58:41.175Z,61.30
2018-06-13T03:01:09.752Z,61.30
2018-06-13T03:03:38.199Z,61.30
2018-06-13T03:06:06.659Z,61.20
2018-06-13T03:08:35.154Z,62.00
2018-06-13T03:11:03.637Z,61.90
2018-06-13T03:13:32.195Z,61.60
2018-06-13T03:16:00.738Z,62.10
2018-06-13T03:18:29.221Z,62.20
2018-06-13T03:20:57.727Z,62.20
2018-06-13T03:23:26.234Z,61.40
2018-06-13T03:25:54.690Z,62.10
2018-06-13T03:28:23.226Z,62.20
2018-06-13T03:30:53.784Z,62.10
2018-06-13T03:33:24.111Z,62.00
2018-06-13T03:35:52.605Z,62.10
2018-06-13T03:38:21.364Z,62.10
2018-06-13T03:43:17.978Z,61.80
2018-06-13T03:45:46.430Z,62.10
2018-06-13T03:48:14.906Z,62.10
2018-06-13T03:50:43.358Z,61.40
2018-06-13T03:53:11.813Z,62.00
2018-06-13T03:55:40.269Z,62.00
2018-06-13T03:58:08.737Z,62.00
2018-06-13T04:00:37.213Z,62.00
2018-06-13T04:03:06.262Z,62.00
2018-06-13T04:05:34.707Z,61.70
2018-06-13T04:08:03.210Z,62.00
2018-06-13T04:10:31.698Z,61.50
2018-06-13T04:13:00.150Z,61.90
2018-06-13T04:15:28.667Z,62.20
2018-06-13T04:17:57.143Z,61.90
2018-06-13T04:20:25.686Z,61.90
2018-06-13T04:22:54.469Z,63.20
2018-06-13T04:25:22.975Z,61.90
2018-06-13T04:27:52.894Z,61.90
2018-06-13T04:30:31.104Z,62.80
2018-06-13T04:32:59.565Z,62.80
2018-06-13T04:35:28.579Z,61.90
2018-06-13T04:37:57.145Z,63.10
2018-06-13T04:40:27.952Z,62.90
2018-06-13T04:42:56.987Z,63.10
2018-06-13T04:45:25.550Z,63.00
2018-06-13T04:47:54.032Z,61.80
2018-06-13T04:50:22.595Z,62.80
2018-06-13T04:52:51.070Z,63.00
2018-06-13T04:55:19.543Z,63.40
2018-06-13T04:57:48.838Z,63.40
2018-06-13T05:00:17.431Z,63.10
2018-06-13T05:02:45.938Z,63.10
2018-06-13T05:05:14.483Z,63.20
2018-06-13T05:07:43.091Z,63.20
2018-06-13T05:10:11.642Z,62.90
2018-06-13T05:12:40.136Z,62.30
2018-06-13T05:15:08.716Z,63.10
2018-06-13T05:17:37.206Z,62.80
2018-06-13T05:20:05.716Z,63.10
2018-06-13T05:22:34.245Z,63.20
2018-06-13T05:25:02.755Z,63.20
2018-06-13T05:27:31.567Z,62.90
2018-06-13T05:30:00.039Z,63.00
2018-06-13T05:32:28.542Z,63.00
2018-06-13T05:34:57.000Z,63.20
2018-06-13T05:37:25.589Z,62.80
2018-06-13T05:39:54.094Z,62.80
2018-06-13T05:42:22.551Z,62.90
2018-06-13T05:44:51.078Z,62.80
2018-06-13T05:47:19.545Z,63.00
2018-06-13T05:49:48.050Z,63.10
2018-06-13T05:52:16.496Z,62.50
2018-06-13T05:54:44.983Z,62.00
2018-06-13T05:57:13.425Z,62.10
2018-06-13T05:59:41.934Z,62.10
2018-06-13T06:02:10.392Z,62.80
2018-06-13T06:04:38.969Z,62.10
2018-06-13T06:07:07.477Z,63.00
2018-06-13T06:09:36.075Z,62.80
2018-06-13T06:12:04.638Z,62.60
2018-06-13T06:14:33.135Z,62.30
2018-06-13T06:17:01.719Z,62.30
2018-06-13T06:19:30.180Z,62.20
2018-06-13T06:21:58.711Z,62.20
2018-06-13T06:24:27.183Z,62.20
2018-06-13T06:26:55.881Z,62.60
2018-06-13T06:29:24.339Z,62.60
2018-06-13T06:31:52.922Z,62.30
2018-06-13T06:34:21.380Z,62.60
2018-06-13T06:36:51.195Z,63.00
2018-06-13T06:39:19.683Z,62.80
2018-06-13T06:41:48.200Z,62.30
2018-06-13T06:44:16.671Z,62.70
2018-06-13T06:46:46.692Z,63.20
2018-06-13T06:49:15.163Z,63.10
2018-06-13T06:51:44.111Z,62.90
2018-06-13T06:54:12.660Z,62.40
2018-06-13T06:59:19.842Z,62.50
2018-06-13T07:01:48.354Z,62.60
2018-06-13T07:04:16.829Z,62.60
2018-06-13T07:06:45.356Z,62.50
2018-06-13T07:09:13.862Z,62.60
2018-06-13T07:11:42.379Z,62.70
2018-06-13T07:14:10.874Z,62.00
2018-06-13T07:16:39.631Z,62.00
2018-06-13T07:19:08.892Z,62.30
2018-06-13T07:21:37.346Z,61.90
2018-06-13T07:24:05.884Z,62.00
2018-06-13T07:26:34.402Z,61.50
2018-06-13T07:29:03.988Z,61.10
2018-06-13T07:31:32.470Z,60.40
2018-06-13T07:34:01.013Z,60.40
2018-06-13T07:36:29.482Z,60.00
2018-06-13T07:38:58.012Z,59.80
2018-06-13T07:41:26.604Z,60.20
2018-06-13T07:43:55.132Z,58.90
2018-06-13T07:46:23.628Z,59.70
2018-06-13T07:48:52.387Z,59.10
2018-06-13T07:51:20.938Z,59.20
2018-06-13T07:53:49.521Z,59.30
2018-06-13T07:56:17.980Z,59.30
2018-06-13T07:58:46.481Z,59.40
2018-06-13T08:01:15.053Z,59.50
2018-06-13T08:03:44.701Z,59.60
2018-06-13T08:06:14.002Z,57.70
2018-06-13T08:08:42.578Z,57.90
2018-06-13T08:11:11.086Z,57.30
2018-06-13T08:13:39.594Z,57.30
2018-06-13T08:16:08.093Z,57.70
2018-06-13T08:18:36.612Z,57.30
2018-06-13T08:21:05.147Z,56.90
2018-06-13T08:23:33.631Z,56.90
2018-06-13T08:26:02.178Z,57.40
2018-06-13T08:28:30.946Z,57.50
2018-06-13T08:30:59.494Z,58.20
2018-06-13T08:33:27.993Z,58.60
2018-06-13T08:35:56.676Z,59.40
2018-06-13T08:38:25.186Z,58.50
2018-06-13T08:40:53.852Z,58.60
2018-06-13T08:43:22.378Z,58.50
2018-06-13T08:45:51.026Z,57.70
2018-06-13T08:48:19.572Z,57.00
2018-06-13T08:50:48.089Z,56.50
2018-06-13T08:53:16.723Z,56.30
2018-06-13T08:55:45.326Z,56.10
2018-06-13T08:58:13.849Z,56.10
2018-06-13T09:00:42.367Z,56.00
2018-06-13T09:03:10.952Z,55.50
2018-06-13T09:05:39.489Z,55.30
2018-06-13T09:08:08.055Z,55.00
2018-06-13T09:10:36.687Z,54.50
2018-06-13T09:13:05.304Z,54.30
2018-06-13T09:15:33.885Z,54.30
2018-06-13T09:20:30.710Z,53.70
2018-06-13T09:22:59.261Z,52.30
2018-06-13T09:25:55.186Z,52.10
2018-06-13T09:28:23.853Z,51.40
2018-06-13T09:30:52.346Z,50.90
2018-06-13T09:33:20.925Z,50.70
2018-06-13T09:35:49.410Z,50.20
2018-06-13T09:38:20.549Z,50.10
2018-06-13T09:40:50.894Z,50.70
2018-06-13T09:43:20.508Z,50.70
2018-06-13T09:45:49.079Z,49.90
2018-06-13T09:48:19.894Z,49.80
2018-06-13T09:50:51.164Z,50.00
2018-06-13T09:53:19.788Z,50.20
2018-06-13T09:55:49.099Z,50.50
2018-06-13T09:58:17.649Z,51.10
2018-06-13T10:00:51.587Z,50.90
2018-06-13T10:03:20.875Z,50.90
2018-06-13T10:05:49.433Z,51.00
2018-06-13T10:08:18.031Z,50.50
2018-06-13T10:10:48.508Z,49.40
2018-06-13T10:13:17.966Z,49.90
2018-06-13T10:15:46.561Z,50.10
2018-06-13T10:18:15.149Z,50.00
2018-06-13T10:20:46.218Z,50.20
2018-06-13T10:23:14.749Z,50.60
2018-06-13T10:25:43.927Z,50.80
2018-06-13T10:28:12.496Z,50.60
2018-06-13T10:30:41.050Z,49.80
2018-06-13T10:33:13.309Z,50.50
2018-06-13T10:35:41.908Z,51.10
2018-06-13T10:38:10.409Z,49.40
2018-06-13T10:40:38.946Z,50.00
2018-06-13T10:43:07.464Z,49.80
2018-06-13T10:45:36.065Z,50.20
2018-06-13T10:48:04.596Z,49.80
2018-06-13T10:50:33.090Z,49.20
2018-06-13T10:53:01.610Z,49.10
2018-06-13T10:55:30.176Z,49.10
2018-06-13T10:57:58.649Z,49.40
2018-06-13T11:00:27.162Z,49.40
2018-06-13T11:02:55.814Z,49.00
2018-06-13T11:05:24.273Z,49.30
2018-06-13T11:07:57.437Z,48.90
2018-06-13T11:10:53.100Z,48.60
2018-06-13T11:13:22.649Z,48.60
2018-06-13T11:15:51.612Z,48.70
2018-06-13T11:18:20.157Z,48.80
2018-06-13T11:20:48.796Z,48.80
2018-06-13T11:23:17.331Z,48.80
2018-06-13T11:25:47.428Z,48.80
2018-06-13T11:28:16.046Z,48.90
2018-06-13T11:30:45.726Z,48.70
2018-06-13T11:33:14.997Z,48.50
2018-06-13T11:35:44.485Z,48.20
2018-06-13T11:38:13.363Z,48.90
2018-06-13T11:40:41.881Z,49.30
2018-06-13T11:43:11.823Z,49.30
2018-06-13T11:45:41.049Z,49.60
2018-06-13T11:48:09.652Z,49.80
2018-06-13T11:50:41.903Z,49.50
2018-06-13T11:53:11.413Z,49.90
2018-06-13T11:55:40.051Z,50.10
2018-06-13T11:58:08.573Z,50.10
2018-06-13T12:00:38.679Z,49.80
2018-06-13T12:03:10.250Z,49.50
2018-06-13T12:05:39.970Z,49.50
2018-06-13T12:08:08.543Z,49.20
2018-06-13T12:10:37.111Z,48.90
2018-06-13T12:13:05.633Z,47.70
2018-06-13T12:15:34.373Z,48.30
2018-06-13T12:18:02.918Z,47.40
2018-06-13T12:20:31.475Z,48.20
2018-06-13T12:23:00.089Z,47.90
2018-06-13T12:25:28.615Z,47.70
2018-06-13T12:27:57.245Z,47.90
2018-06-13T12:30:25.736Z,48.00
2018-06-13T12:32:54.325Z,48.00
2018-06-13T12:35:22.873Z,47.90
2018-06-13T12:37:51.468Z,47.80
2018-06-13T12:40:20.052Z,47.70
2018-06-13T12:42:49.558Z,47.80
2018-06-13T12:45:20.940Z,48.10
2018-06-13T12:47:49.472Z,48.20
2018-06-13T12:50:17.962Z,47.40
2018-06-13T12:52:46.538Z,48.20
2018-06-13T12:55:15.040Z,45.70
2018-06-13T12:57:43.606Z,45.20
2018-06-13T13:02:40.341Z,46.10
2018-06-13T13:05:08.839Z,46.10
2018-06-13T13:07:37.351Z,47.20
2018-06-13T13:10:05.882Z,46.10
2018-06-13T13:12:34.409Z,46.50
2018-06-13T13:15:02.842Z,46.50
2018-06-13T13:17:31.304Z,46.80
2018-06-13T13:19:59.838Z,47.80
2018-06-13T13:22:28.329Z,47.90
2018-06-13T13:24:56.854Z,47.70
2018-06-13T13:27:25.353Z,47.30
2018-06-13T13:29:53.910Z,47.20
2018-06-13T13:32:22.393Z,48.10
2018-06-13T13:34:50.922Z,48.30
2018-06-13T13:37:19.412Z,49.10
2018-06-13T13:39:47.923Z,49.30
2018-06-13T13:42:16.390Z,49.80
2018-06-13T13:44:45.344Z,49.90
2018-06-13T13:47:13.905Z,49.80
2018-06-13T13:49:42.700Z,50.00
2018-06-13T13:52:11.266Z,50.50
2018-06-13T13:54:39.851Z,50.40
2018-06-13T13:57:08.353Z,50.60
2018-06-13T13:59:36.826Z,50.70
2018-06-13T14:02:05.426Z,50.20
2018-06-13T14:04:33.944Z,50.50
2018-06-13T14:07:02.509Z,50.20
2018-06-13T14:09:31.075Z,50.30
2018-06-13T14:12:00.046Z,50.10
2018-06-13T14:14:28.578Z,50.30
2018-06-13T14:16:57.089Z,50.40
2018-06-13T14:19:25.617Z,50.20
2018-06-13T14:21:54.134Z,50.20
2018-06-13T14:24:22.655Z,50.40
2018-06-13T14:26:51.222Z,50.90
2018-06-13T14:29:19.731Z,51.10
2018-06-13T14:31:48.406Z,50.90
2018-06-13T14:34:16.937Z,51.10
2018-06-13T14:36:45.635Z,50.90
2018-06-13T14:39:14.353Z,50.90
2018-06-13T14:41:43.832Z,50.70
2018-06-13T14:44:12.426Z,51.40
2018-06-13T14:46:41.180Z,51.00
2018-06-13T14:49:09.722Z,51.60
2018-06-13T14:51:38.283Z,51.30
2018-06-13T14:54:06.834Z,52.00
2018-06-13T14:56:35.383Z,52.10
2018-06-13T14:59:03.959Z,52.00
2018-06-13T15:01:32.410Z,52.00
2018-06-13T15:04:00.991Z,51.80
2018-06-13T15:06:30.286Z,52.00
2018-06-13T15:08:58.866Z,52.10
2018-06-13T15:11:27.359Z,52.10
2018-06-13T15:13:55.866Z,52.00
2018-06-13T15:16:24.375Z,52.00
2018-06-13T15:18:52.898Z,52.40
2018-06-13T15:21:21.391Z,53.10
2018-06-13T15:23:50.007Z,53.00
2018-06-13T15:26:18.458Z,52.90
2018-06-13T15:28:47.067Z,52.80
2018-06-13T15:31:15.575Z,52.90
2018-06-13T15:33:44.086Z,53.20
2018-06-13T15:36:12.878Z,53.80
2018-06-13T15:38:41.432Z,54.40
2018-06-13T15:41:09.950Z,54.70
2018-06-13T15:43:38.495Z,55.30
2018-06-13T15:46:07.099Z,55.00
2018-06-13T15:48:35.689Z,55.40
2018-06-13T15:51:04.925Z,55.50
2018-06-13T15:53:33.435Z,56.00
2018-06-13T15:56:01.981Z,56.80
2018-06-13T15:58:30.486Z,56.10
2018-06-13T16:00:59.080Z,57.30
2018-06-13T16:03:27.588Z,56.50
2018-06-13T16:05:56.172Z,57.70
2018-06-13T16:08:24.645Z,57.00
2018-06-13T16:10:53.207Z,58.00
2018-06-13T16:13:21.720Z,58.00
2018-06-13T16:15:50.245Z,57.40
2018-06-13T16:18:18.743Z,57.90
2018-06-13T16:20:47.362Z,58.10
2018-06-13T16:23:16.010Z,58.10
2018-06-13T16:25:44.611Z,58.10
2018-06-13T16:28:13.170Z,58.10
2018-06-13T16:30:41.664Z,58.00
2018-06-13T16:33:10.200Z,58.00
2018-06-13T16:35:38.649Z,58.90
2018-06-13T16:40:35.359Z,57.80
2018-06-13T16:43:03.915Z,59.20
2018-06-13T16:45:32.405Z,58.60
2018-06-13T16:48:00.944Z,58.20
2018-06-13T16:50:40.682Z,58.90
2018-06-13T16:53:44.674Z,59.00
2018-06-13T16:56:13.878Z,60.00
2018-06-13T16:58:42.396Z,60.00
2018-06-13T17:01:10.874Z,60.60
2018-06-13T17:03:39.552Z,60.80
2018-06-13T17:06:08.037Z,60.10
2018-06-13T17:08:37.441Z,60.90
2018-06-13T17:11:05.941Z,61.20
2018-06-13T17:13:34.445Z,61.20
2018-06-13T17:16:02.995Z,61.20
2018-06-13T17:18:31.521Z,61.40
2018-06-13T17:21:00.168Z,61.60
2018-06-13T17:23:30.587Z,61.50
2018-06-13T17:26:01.192Z,61.40
2018-06-13T17:28:29.827Z,61.70
2018-06-13T17:30:58.486Z,61.20
2018-06-13T17:33:27.202Z,61.40
2018-06-13T17:35:55.898Z,61.30
2018-06-13T17:38:24.401Z,62.10
2018-06-13T17:40:53.958Z,61.10
2018-06-13T17:43:22.475Z,62.00
2018-06-13T17:45:51.038Z,61.90
2018-06-13T17:48:19.543Z,61.80
2018-06-13T17:50:48.103Z,62.50
2018-06-13T17:55:47.356Z,62.40
2018-06-13T17:58:15.954Z,62.60
2018-06-13T18:00:50.731Z,63.20
2018-06-13T18:03:19.614Z,62.00
2018-06-13T18:05:48.509Z,62.50
2018-06-13T18:08:17.093Z,62.80
2018-06-13T18:10:45.596Z,63.20
2018-06-13T18:13:14.760Z,62.80
2018-06-13T18:15:44.829Z,63.40
2018-06-13T18:18:13.467Z,63.40
2018-06-13T18:20:42.013Z,63.30
2018-06-13T18:23:10.624Z,62.40
2018-06-13T18:25:39.134Z,63.30
2018-06-13T18:28:08.356Z,63.80
2018-06-13T18:30:37.208Z,63.80
2018-06-13T18:33:06.214Z,63.90
2018-06-13T18:35:34.734Z,63.60
2018-06-13T18:38:03.334Z,63.20
2018-06-13T18:43:00.887Z,63.50
2018-06-13T18:45:32.853Z,63.20
2018-06-13T18:50:29.627Z,63.80
2018-06-13T18:53:01.336Z,63.20
2018-06-13T18:55:32.421Z,63.70
2018-06-13T18:58:01.127Z,64.20
2018-06-13T19:00:31.976Z,64.70
2018-06-13T19:03:00.594Z,64.40
2018-06-13T19:05:30.821Z,63.70
2018-06-13T19:08:00.295Z,64.70
2018-06-13T19:12:57.457Z,65.10
2018-06-13T19:15:27.037Z,65.10
2018-06-13T19:17:55.622Z,65.00
2018-06-13T19:20:24.271Z,65.20
2018-06-13T19:22:52.946Z,65.30
2018-06-13T19:25:22.641Z,65.70
2018-06-13T19:27:51.893Z,65.70
2018-06-13T19:30:23.733Z,65.30
2018-06-13T19:32:54.137Z,65.50
2018-06-13T19:35:22.820Z,65.70
2018-06-13T19:37:55.337Z,65.30
2018-06-13T19:40:28.077Z,65.10
2018-06-13T19:42:57.367Z,65.90
2018-06-13T19:45:26.244Z,66.00
2018-06-13T19:49:04.105Z,66.40
2018-06-13T19:51:34.338Z,66.60
2018-06-13T19:54:10.735Z,66.70
2018-06-13T19:56:41.491Z,66.60
2018-06-13T19:59:11.915Z,66.70
2018-06-13T20:01:41.567Z,66.60
2018-06-13T20:04:17.479Z,66.60
2018-06-13T20:06:48.825Z,66.60
2018-06-13T20:09:20.275Z,66.60
2018-06-13T20:11:48.794Z,66.60
2018-06-13T20:14:22.685Z,66.60
2018-06-13T20:16:57.660Z,66.60
2018-06-13T20:19:31.506Z,66.60
2018-06-13T20:22:00.449Z,66.60
2018-06-13T20:24:29.917Z,66.60
2018-06-13T20:27:03.717Z,66.70
2018-06-13T20:29:38.715Z,66.60
2018-06-13T20:32:07.320Z,66.70
2018-06-13T20:34:35.836Z,66.70
2018-06-13T20:37:04.362Z,67.10
2018-06-13T20:42:01.815Z,67.40
2018-06-13T20:44:31.422Z,67.00
2018-06-13T20:47:00.048Z,67.00
2018-06-13T20:49:28.748Z,67.30
2018-06-13T20:51:59.173Z,66.90
2018-06-13T20:54:29.608Z,66.70
2018-06-13T20:56:59.280Z,67.60
2018-06-13T20:59:27.833Z,67.50
2018-06-13T21:01:56.345Z,67.90
2018-06-13T21:06:53.474Z,67.80
2018-06-13T21:09:22.804Z,67.80
2018-06-13T21:11:51.735Z,67.90
2018-06-13T21:14:20.364Z,67.80
2018-06-13T21:16:53.040Z,68.00
2018-06-13T21:19:22.413Z,68.10
2018-06-13T21:21:51.005Z,67.90
2018-06-13T21:24:21.299Z,67.10
2018-06-13T21:26:49.862Z,68.20
2018-06-13T21:29:18.435Z,68.20
2018-06-13T21:34:17.856Z,68.20
2018-06-13T21:36:46.542Z,68.30
2018-06-13T21:41:43.290Z,68.50
2018-06-13T21:44:11.943Z,68.60
2018-06-13T21:46:40.488Z,68.50
2018-06-13T21:49:09.015Z,68.30
2018-06-13T21:51:37.478Z,68.30
2018-06-13T21:54:06.193Z,68.50
2018-06-13T21:56:34.662Z,68.70
2018-06-13T21:59:03.158Z,68.70
2018-06-13T22:01:32.124Z,68.60
2018-06-13T22:04:00.627Z,68.90
2018-06-13T22:06:29.367Z,68.50
2018-06-13T22:08:57.872Z,68.40
2018-06-13T22:11:26.335Z,68.50
2018-06-13T22:13:54.846Z,68.60
2018-06-13T22:16:23.333Z,68.60
2018-06-13T22:18:51.844Z,68.60
2018-06-13T22:21:20.344Z,68.50
2018-06-13T22:23:48.862Z,68.40
2018-06-13T22:26:17.366Z,68.50
2018-06-13T22:28:46.017Z,68.60
2018-06-13T22:31:15.299Z,68.50
2018-06-13T22:33:43.814Z,68.60
2018-06-13T22:36:12.280Z,68.70
2018-06-13T22:38:40.779Z,68.50
2018-06-13T22:41:09.262Z,68.50
2018-06-13T22:43:37.750Z,68.40
2018-06-13T22:46:06.518Z,68.00
2018-06-13T22:48:35.159Z,68.80
2018-06-13T22:51:03.652Z,68.80
2018-06-13T22:53:32.188Z,68.80
2018-06-13T22:56:00.675Z,68.70
2018-06-13T22:58:29.275Z,68.80
2018-06-13T23:01:02.837Z,68.90
2018-06-13T23:03:32.184Z,69.10
2018-06-13T23:06:03.089Z,69.00
2018-06-13T23:08:32.374Z,68.80
2018-06-13T23:11:00.875Z,69.00
2018-06-13T23:13:29.428Z,68.90
2018-06-13T23:15:57.892Z,69.20
2018-06-13T23:18:27.201Z,69.20
2018-06-13T23:20:55.818Z,69.50
2018-06-13T23:23:24.306Z,69.20
2018-06-13T23:25:53.878Z,69.50
2018-06-13T23:28:22.370Z,69.10
2018-06-13T23:30:50.875Z,69.10
2018-06-13T23:33:20.753Z,69.60
2018-06-13T23:35:49.239Z,69.70
2018-06-13T23:38:17.810Z,69.50
2018-06-13T23:40:46.494Z,69.70
2018-06-13T23:43:14.971Z,69.70
2018-06-13T23:45:43.561Z,69.80
2018-06-13T23:48:12.107Z,69.60
2018-06-13T23:50:40.599Z,69.80
2018-06-13T23:53:09.067Z,69.80
2018-06-13T23:55:37.629Z,69.70
2018-06-13T23:58:06.190Z,70.40
